createdAt,value
2023-02-16T00:00:51.548Z,100249.13
2023-02-16T00:01:53.803Z,100254.84
2023-02-16T00:02:55.647Z,100250.41
2023-02-16T00:03:58.154Z,100246.00
2023-02-16T00:04:59.876Z,100255.63
2023-02-16T00:06:01.618Z,100252.38
2023-02-16T00:07:03.308Z,100244.91
2023-02-16T00:08:05.215Z,100251.41
2023-02-16T00:09:06.919Z,100242.75
2023-02-16T00:10:10.079Z,100244.97
2023-02-16T00:11:54.089Z,100251.97
2023-02-16T00:13:14.699Z,100245.50
2023-02-16T00:14:17.275Z,100242.88
2023-02-16T00:15:20.488Z,100242.28
2023-02-16T00:16:24.652Z,100245.84
2023-02-16T00:17:26.425Z,100211.81
2023-02-16T00:18:28.107Z,100250.72
2023-02-16T00:19:38.081Z,100256.63
2023-02-16T00:20:39.785Z,100251.78
2023-02-16T00:21:41.475Z,100256.06
2023-02-16T00:22:43.649Z,100251.59
2023-02-16T00:23:45.801Z,100212.69
2023-02-16T00:24:47.547Z,100255.16
2023-02-16T00:25:49.252Z,100242.22
2023-02-16T00:26:51.067Z,100245.91
2023-02-16T00:27:53.299Z,100250.53
2023-02-16T00:29:00.329Z,100259.34
2023-02-16T00:30:02.677Z,100262.50
2023-02-16T00:31:04.929Z,100235.28
2023-02-16T00:32:06.993Z,100244.38
2023-02-16T00:33:20.063Z,100254.91
2023-02-16T00:34:41.379Z,100253.00
2023-02-16T00:35:43.696Z,100252.75
2023-02-16T00:36:45.384Z,100253.00
2023-02-16T00:37:48.473Z,100240.25
2023-02-16T00:38:50.189Z,100251.84
2023-02-16T00:39:51.937Z,100246.78
2023-02-16T00:40:53.639Z,100230.06
2023-02-16T00:41:58.764Z,100242.97
2023-02-16T00:43:01.030Z,100243.09
2023-02-16T00:44:03.090Z,100245.72
2023-02-16T00:45:05.647Z,100245.00
2023-02-16T00:46:09.079Z,100240.91
2023-02-16T00:47:18.354Z,100243.13
2023-02-16T00:48:20.775Z,100247.63
2023-02-16T00:49:22.829Z,100247.09
2023-02-16T00:50:33.428Z,100250.91
2023-02-16T00:51:35.126Z,100246.97
2023-02-16T00:52:39.400Z,100256.56
2023-02-16T00:53:41.131Z,100238.81
2023-02-16T00:54:42.837Z,100244.59
2023-02-16T00:55:45.228Z,100244.25
2023-02-16T00:56:47.099Z,100244.84
2023-02-16T00:57:54.529Z,100242.59
2023-02-16T00:58:57.261Z,100244.34
2023-02-16T01:00:07.393Z,100248.41
2023-02-16T01:01:14.807Z,100243.19
2023-02-16T01:02:16.624Z,100233.84
2023-02-16T01:03:24.500Z,100237.03
2023-02-16T01:04:26.292Z,100243.91
2023-02-16T01:05:28.688Z,100238.81
2023-02-16T01:06:48.690Z,100250.06
2023-02-16T01:08:09.716Z,100243.75
2023-02-16T01:09:36.329Z,100226.84
2023-02-16T01:10:57.787Z,100235.38
2023-02-16T01:12:00.711Z,100242.13
2023-02-16T01:13:05.019Z,100239.41
2023-02-16T01:14:11.306Z,100236.78
2023-02-16T01:15:14.929Z,100247.31
2023-02-16T01:16:20.433Z,100235.50
2023-02-16T01:17:23.691Z,100239.28
2023-02-16T01:18:25.402Z,100233.47
2023-02-16T01:19:27.993Z,100241.50
2023-02-16T01:20:29.784Z,100229.19
2023-02-16T01:21:31.577Z,100239.94
2023-02-16T01:22:34.026Z,100240.53
2023-02-16T01:23:37.065Z,100238.25
2023-02-16T01:24:38.892Z,100238.84
2023-02-16T01:25:41.747Z,100242.50
2023-02-16T01:26:48.223Z,100240.84
2023-02-16T01:27:50.519Z,100232.72
2023-02-16T01:28:52.324Z,100238.53
2023-02-16T01:29:54.147Z,100232.03
2023-02-16T01:30:56.077Z,100231.56
2023-02-16T01:31:57.898Z,100236.66
2023-02-16T01:32:59.715Z,100216.41
2023-02-16T01:34:01.458Z,100217.34
2023-02-16T01:35:03.349Z,100231.91
2023-02-16T01:36:05.685Z,100215.81
2023-02-16T01:37:14.716Z,100234.41
2023-02-16T01:38:22.799Z,100240.09
2023-02-16T01:39:24.539Z,100213.91
2023-02-16T01:40:35.128Z,100232.84
2023-02-16T01:42:06.051Z,100226.81
2023-02-16T01:43:22.944Z,100224.81
2023-02-16T01:44:33.163Z,100230.13
2023-02-16T01:45:38.465Z,100228.47
2023-02-16T01:46:49.713Z,100222.66
2023-02-16T01:47:54.016Z,100227.28
2023-02-16T01:48:55.719Z,100223.63
2023-02-16T01:49:57.403Z,100236.06
2023-02-16T01:51:04.983Z,100229.31
2023-02-16T01:52:38.486Z,100223.97
2023-02-16T01:53:46.071Z,100229.50
2023-02-16T01:55:00.834Z,100224.91
2023-02-16T01:56:06.082Z,100228.69
2023-02-16T01:57:37.615Z,100228.94
2023-02-16T01:58:55.771Z,100221.13
2023-02-16T01:59:57.463Z,100231.66
2023-02-16T02:00:59.166Z,100225.25
2023-02-16T02:02:04.201Z,100228.47
2023-02-16T02:03:31.807Z,100232.63
2023-02-16T02:04:51.741Z,100236.06
2023-02-16T02:05:53.469Z,100225.75
2023-02-16T02:06:55.165Z,100226.09
2023-02-16T02:08:14.824Z,100229.91
2023-02-16T02:09:37.785Z,100229.78
2023-02-16T02:10:57.700Z,100231.06
2023-02-16T02:12:42.845Z,100226.78
2023-02-16T02:13:53.750Z,100224.31
2023-02-16T02:14:56.503Z,100219.22
2023-02-16T02:16:00.063Z,100224.69
2023-02-16T02:17:08.793Z,100230.34
2023-02-16T02:18:10.515Z,100217.47
2023-02-16T02:19:12.219Z,100230.97
2023-02-16T02:20:14.001Z,100225.75
2023-02-16T02:21:49.559Z,100221.16
2023-02-16T02:23:30.310Z,100224.31
2023-02-16T02:24:57.704Z,100224.09
2023-02-16T02:26:30.142Z,100228.84
2023-02-16T02:27:36.321Z,100216.00
2023-02-16T02:29:05.333Z,100230.53
2023-02-16T02:30:25.667Z,100234.59
2023-02-16T02:31:39.495Z,100228.88
2023-02-16T02:33:24.145Z,100227.69
2023-02-16T02:34:37.778Z,100232.91
2023-02-16T02:35:58.654Z,100226.63
2023-02-16T02:37:00.297Z,100230.66
2023-02-16T02:38:14.141Z,100233.97
2023-02-16T02:39:34.095Z,100221.78
2023-02-16T02:40:48.160Z,100232.16
2023-02-16T02:42:18.554Z,100231.72
2023-02-16T02:43:25.144Z,100239.06
2023-02-16T02:44:29.067Z,100230.31
2023-02-16T02:45:41.332Z,100228.31
2023-02-16T02:46:43.377Z,100226.34
2023-02-16T02:47:48.293Z,100231.06
2023-02-16T02:48:50.169Z,100231.16
2023-02-16T02:49:54.377Z,100224.81
2023-02-16T02:51:26.886Z,100229.06
2023-02-16T02:52:28.624Z,100239.38
2023-02-16T02:53:31.810Z,100234.38
2023-02-16T02:54:56.317Z,100237.94
2023-02-16T02:56:20.400Z,100233.88
2023-02-16T02:57:59.582Z,100234.09
2023-02-16T02:59:26.669Z,100223.09
2023-02-16T03:00:51.753Z,100232.91
2023-02-16T03:01:59.746Z,100245.09
2023-02-16T03:03:19.304Z,100240.72
2023-02-16T03:04:24.243Z,100228.19
2023-02-16T03:05:28.929Z,100239.06
2023-02-16T03:06:36.962Z,100241.66
2023-02-16T03:07:48.816Z,100241.56
2023-02-16T03:08:56.315Z,100233.25
2023-02-16T03:10:17.970Z,100221.88
2023-02-16T03:11:40.554Z,100239.97
2023-02-16T03:12:45.348Z,100235.00
2023-02-16T03:13:51.740Z,100242.03
2023-02-16T03:14:58.590Z,100234.03
2023-02-16T03:16:04.578Z,100239.22
2023-02-16T03:17:29.576Z,100216.59
2023-02-16T03:18:53.433Z,100234.91
2023-02-16T03:20:15.086Z,100231.16
2023-02-16T03:21:35.106Z,100232.31
2023-02-16T03:22:57.009Z,100229.09
2023-02-16T03:24:22.196Z,100235.50
2023-02-16T03:25:48.220Z,100239.13
2023-02-16T03:27:09.552Z,100225.31
2023-02-16T03:28:31.950Z,100233.22
2023-02-16T03:29:35.762Z,100236.03
2023-02-16T03:30:37.765Z,100225.19
2023-02-16T03:31:40.541Z,100228.41
2023-02-16T03:32:44.354Z,100231.94
2023-02-16T03:33:47.708Z,100228.28
2023-02-16T03:34:49.846Z,100226.41
2023-02-16T03:35:53.355Z,100221.09
2023-02-16T03:37:00.832Z,100231.16
2023-02-16T03:38:02.884Z,100225.03
2023-02-16T03:39:05.705Z,100219.09
2023-02-16T03:40:29.834Z,100232.59
2023-02-16T03:41:39.436Z,100229.03
2023-02-16T03:42:49.120Z,100215.78
2023-02-16T03:43:50.854Z,100227.41
2023-02-16T03:44:52.975Z,100224.09
2023-02-16T03:45:55.337Z,100226.69
2023-02-16T03:46:57.420Z,100229.00
2023-02-16T03:47:59.180Z,100229.72
2023-02-16T03:49:00.916Z,100224.53
2023-02-16T03:50:02.660Z,100214.06
2023-02-16T03:51:04.651Z,100216.16
2023-02-16T03:52:06.509Z,100217.13
2023-02-16T03:53:08.312Z,100229.25
2023-02-16T03:54:10.197Z,100223.31
2023-02-16T03:55:12.354Z,100217.06
2023-02-16T03:56:14.106Z,100205.56
2023-02-16T03:57:17.159Z,100217.88
2023-02-16T03:58:23.720Z,100220.16
2023-02-16T03:59:25.611Z,100213.75
2023-02-16T04:00:27.815Z,100216.25
2023-02-16T04:01:29.694Z,100206.97
2023-02-16T04:02:31.458Z,100221.81
2023-02-16T04:03:35.368Z,100218.41
2023-02-16T04:04:37.233Z,100225.88
2023-02-16T04:05:41.922Z,100227.53
2023-02-16T04:06:43.717Z,100217.13
2023-02-16T04:07:45.524Z,100216.41
2023-02-16T04:08:47.241Z,100220.44
2023-02-16T04:09:49.088Z,100211.22
2023-02-16T04:10:51.082Z,100206.03
2023-02-16T04:12:11.499Z,100215.22
2023-02-16T04:13:13.206Z,100221.88
2023-02-16T04:14:15.019Z,100221.16
2023-02-16T04:15:22.544Z,100220.22
2023-02-16T04:16:24.521Z,100225.78
2023-02-16T04:17:26.296Z,100213.78
2023-02-16T04:18:27.982Z,100222.97
2023-02-16T04:19:30.739Z,100217.78
2023-02-16T04:20:33.912Z,100226.09
2023-02-16T04:21:35.635Z,100209.25
2023-02-16T04:22:37.474Z,100220.69
2023-02-16T04:23:39.254Z,100228.47
2023-02-16T04:24:40.958Z,100222.97
2023-02-16T04:25:42.728Z,100225.56
2023-02-16T04:26:45.965Z,100219.78
2023-02-16T04:27:48.237Z,100177.34
2023-02-16T04:28:49.988Z,100220.50
2023-02-16T04:29:51.825Z,100221.16
2023-02-16T04:30:53.681Z,100224.59
2023-02-16T04:31:56.301Z,100212.44
2023-02-16T04:32:59.455Z,100227.69
2023-02-16T04:34:01.218Z,100220.84
2023-02-16T04:35:03.497Z,100225.94
2023-02-16T04:36:05.692Z,100213.94
2023-02-16T04:37:07.535Z,100221.25
2023-02-16T04:38:09.358Z,100235.19
2023-02-16T04:39:11.039Z,100230.00
2023-02-16T04:40:14.741Z,100237.56
2023-02-16T04:41:16.443Z,100230.09
2023-02-16T04:42:18.228Z,100240.84
2023-02-16T04:43:20.004Z,100235.84
2023-02-16T04:44:21.801Z,100236.47
2023-02-16T04:45:23.484Z,100198.06
2023-02-16T04:46:25.387Z,100225.66
2023-02-16T04:47:27.348Z,100211.06
2023-02-16T04:48:29.046Z,100231.31
2023-02-16T04:49:30.787Z,100231.81
2023-02-16T04:50:32.514Z,100232.44
2023-02-16T04:51:34.214Z,100235.22
2023-02-16T04:52:36.929Z,100239.84
2023-02-16T04:53:38.674Z,100236.72
2023-02-16T04:54:40.584Z,100237.25
2023-02-16T04:55:49.806Z,100223.75
2023-02-16T04:56:51.500Z,100245.31
2023-02-16T04:57:53.238Z,100240.31
2023-02-16T04:58:56.102Z,100240.31
2023-02-16T04:59:57.786Z,100232.91
2023-02-16T05:00:59.523Z,100233.31
2023-02-16T05:02:01.269Z,100245.56
2023-02-16T05:03:03.011Z,100245.44
2023-02-16T05:04:05.194Z,100242.13
2023-02-16T05:05:07.555Z,100236.09
2023-02-16T05:06:09.261Z,100248.56
2023-02-16T05:07:10.963Z,100242.66
2023-02-16T05:08:12.761Z,100246.69
2023-02-16T05:09:14.463Z,100252.41
2023-02-16T05:10:16.166Z,100253.25
2023-02-16T05:11:36.375Z,100257.59
2023-02-16T05:12:56.958Z,100240.34
2023-02-16T05:14:18.028Z,100248.59
2023-02-16T05:15:19.937Z,100253.91
2023-02-16T05:16:24.638Z,100252.84
2023-02-16T05:17:27.733Z,100258.75
2023-02-16T05:18:29.425Z,100267.81
2023-02-16T05:19:31.145Z,100261.28
2023-02-16T05:20:51.738Z,100264.31
2023-02-16T05:21:53.473Z,100263.28
2023-02-16T05:22:55.166Z,100261.91
2023-02-16T05:24:01.729Z,100256.19
2023-02-16T05:25:03.582Z,100260.34
2023-02-16T05:26:05.335Z,100259.59
2023-02-16T05:27:11.352Z,100271.88
2023-02-16T05:28:13.157Z,100259.50
2023-02-16T05:29:15.825Z,100259.84
2023-02-16T05:30:17.681Z,100256.81
2023-02-16T05:31:19.457Z,100270.75
2023-02-16T05:32:21.739Z,100272.19
2023-02-16T05:33:23.794Z,100257.25
2023-02-16T05:34:25.750Z,100272.94
2023-02-16T05:35:27.524Z,100272.41
2023-02-16T05:36:29.336Z,100273.34
2023-02-16T05:37:31.018Z,100273.84
2023-02-16T05:38:32.837Z,100260.34
2023-02-16T05:39:35.111Z,100281.53
2023-02-16T05:40:36.811Z,100276.34
2023-02-16T05:41:38.520Z,100276.34
2023-02-16T05:42:40.227Z,100280.50
2023-02-16T05:43:41.961Z,100279.25
2023-02-16T05:44:43.652Z,100274.34
2023-02-16T05:45:45.426Z,100273.28
2023-02-16T05:46:47.171Z,100272.34
2023-02-16T05:47:48.891Z,100277.13
2023-02-16T05:48:51.212Z,100287.09
2023-02-16T05:49:52.904Z,100279.28
2023-02-16T05:50:54.942Z,100287.59
2023-02-16T05:51:56.684Z,100281.38
2023-02-16T05:52:58.375Z,100271.66
2023-02-16T05:54:00.287Z,100284.03
2023-02-16T05:55:02.139Z,100286.53
2023-02-16T05:56:05.875Z,100269.06
2023-02-16T05:57:10.164Z,100282.75
2023-02-16T05:58:11.908Z,100287.75
2023-02-16T05:59:14.403Z,100290.13
2023-02-16T06:00:16.692Z,100292.72
2023-02-16T06:01:18.948Z,100278.06
2023-02-16T06:02:20.766Z,100280.94
2023-02-16T06:03:22.540Z,100278.22
2023-02-16T06:04:24.342Z,100285.47
2023-02-16T06:05:26.759Z,100284.44
2023-02-16T06:06:28.522Z,100285.16
2023-02-16T06:07:30.240Z,100284.22
2023-02-16T06:08:32.876Z,100275.56
2023-02-16T06:09:34.710Z,100270.84
2023-02-16T06:10:36.474Z,100277.97
2023-02-16T06:11:38.302Z,100280.34
2023-02-16T06:12:40.013Z,100285.09
2023-02-16T06:13:41.701Z,100278.34
2023-02-16T06:14:43.411Z,100270.28
2023-02-16T06:15:45.413Z,100280.41
2023-02-16T06:16:49.037Z,100284.19
2023-02-16T06:17:50.752Z,100284.47
2023-02-16T06:18:53.002Z,100266.59
2023-02-16T06:19:55.118Z,100281.56
2023-02-16T06:20:57.494Z,100285.25
2023-02-16T06:21:59.226Z,100285.63
2023-02-16T06:23:00.930Z,100281.75
2023-02-16T06:24:03.059Z,100298.31
2023-02-16T06:25:04.960Z,100281.88
2023-02-16T06:26:06.630Z,100280.81
2023-02-16T06:27:08.462Z,100289.69
2023-02-16T06:28:10.277Z,100295.97
2023-02-16T06:29:12.088Z,100302.16
2023-02-16T06:30:14.059Z,100304.28
2023-02-16T06:31:15.991Z,100293.97
2023-02-16T06:32:18.638Z,100287.09
2023-02-16T06:33:20.432Z,100301.09
2023-02-16T06:34:22.188Z,100290.69
2023-02-16T06:35:23.940Z,100306.31
2023-02-16T06:36:25.762Z,100296.94
2023-02-16T06:37:27.454Z,100302.03
2023-02-16T06:38:29.143Z,100305.91
2023-02-16T06:39:30.921Z,100303.31
2023-02-16T06:40:32.642Z,100298.94
2023-02-16T06:41:40.958Z,100303.41
2023-02-16T06:42:43.057Z,100309.06
2023-02-16T06:43:44.737Z,100317.25
2023-02-16T06:44:46.464Z,100302.06
2023-02-16T06:45:49.020Z,100290.69
2023-02-16T06:46:50.943Z,100308.56
2023-02-16T06:47:52.633Z,100312.47
2023-02-16T06:48:54.494Z,100311.25
2023-02-16T06:49:56.358Z,100310.06
2023-02-16T06:50:58.341Z,100308.88
2023-02-16T06:52:00.085Z,100307.53
2023-02-16T06:53:01.832Z,100310.50
2023-02-16T06:54:03.620Z,100304.50
2023-02-16T06:55:05.542Z,100305.94
2023-02-16T06:56:08.019Z,100307.31
2023-02-16T06:57:09.814Z,100311.34
2023-02-16T06:58:12.218Z,100306.56
2023-02-16T06:59:14.155Z,100315.53
2023-02-16T07:00:16.635Z,100310.50
2023-02-16T07:01:23.306Z,100320.69
2023-02-16T07:02:25.188Z,100313.06
2023-02-16T07:03:26.950Z,100321.09
2023-02-16T07:04:29.004Z,100315.50
2023-02-16T07:05:30.957Z,100310.31
2023-02-16T07:06:32.666Z,100314.91
2023-02-16T07:07:34.407Z,100318.34
2023-02-16T07:08:36.172Z,100320.28
2023-02-16T07:09:37.893Z,100318.16
2023-02-16T07:10:50.254Z,100307.19
2023-02-16T07:11:52.366Z,100324.69
2023-02-16T07:12:54.090Z,100319.56
2023-02-16T07:13:55.845Z,100310.72
2023-02-16T07:14:57.530Z,100314.91
2023-02-16T07:15:59.227Z,100322.16
2023-02-16T07:17:04.427Z,100320.03
2023-02-16T07:18:06.618Z,100320.78
2023-02-16T07:19:08.715Z,100305.88
2023-02-16T07:20:12.754Z,100315.53
2023-02-16T07:21:14.870Z,100312.22
2023-02-16T07:22:17.648Z,100322.34
2023-02-16T07:23:19.391Z,100306.66
2023-02-16T07:24:21.235Z,100322.56
2023-02-16T07:25:25.432Z,100322.50
2023-02-16T07:26:28.265Z,100315.81
2023-02-16T07:27:29.983Z,100326.16
2023-02-16T07:28:31.794Z,100306.09
2023-02-16T07:29:33.492Z,100326.88
2023-02-16T07:30:36.111Z,100317.88
2023-02-16T07:31:38.171Z,100307.75
2023-02-16T07:32:39.931Z,100318.75
2023-02-16T07:33:42.418Z,100316.63
2023-02-16T07:34:44.169Z,100307.00
2023-02-16T07:35:45.930Z,100305.53
2023-02-16T07:36:47.728Z,100312.34
2023-02-16T07:37:49.473Z,100312.47
2023-02-16T07:38:51.875Z,100312.88
2023-02-16T07:39:53.677Z,100309.06
2023-02-16T07:40:55.404Z,100319.16
2023-02-16T07:41:57.087Z,100314.94
2023-02-16T07:43:04.027Z,100315.34
2023-02-16T07:44:06.301Z,100315.78
2023-02-16T07:45:08.450Z,100314.59
2023-02-16T07:46:10.602Z,100318.69
2023-02-16T07:47:13.657Z,100318.66
2023-02-16T07:48:15.607Z,100316.22
2023-02-16T07:49:17.332Z,100320.31
2023-02-16T07:50:19.168Z,100312.91
2023-02-16T07:51:31.498Z,100317.31
2023-02-16T07:52:34.402Z,100310.91
2023-02-16T07:53:36.122Z,100311.91
2023-02-16T07:54:38.117Z,100320.84
2023-02-16T07:55:44.759Z,100319.66
2023-02-16T07:56:47.110Z,100321.09
2023-02-16T07:57:49.660Z,100322.47
2023-02-16T07:58:56.308Z,100305.09
2023-02-16T07:59:58.046Z,100314.97
2023-02-16T08:01:08.998Z,100314.41
2023-02-16T08:02:18.277Z,100317.81
2023-02-16T08:03:20.263Z,100313.59
2023-02-16T08:04:22.276Z,100309.88
2023-02-16T08:05:24.161Z,100315.97
2023-02-16T08:06:25.940Z,100312.78
2023-02-16T08:07:28.182Z,100313.81
2023-02-16T08:08:30.665Z,100319.75
2023-02-16T08:09:32.802Z,100314.75
2023-02-16T08:10:34.503Z,100323.50
2023-02-16T08:11:36.217Z,100320.47
2023-02-16T08:12:37.942Z,100300.06
2023-02-16T08:13:40.107Z,100311.59
2023-02-16T08:14:42.525Z,100324.56
2023-02-16T08:15:45.027Z,100313.84
2023-02-16T08:16:46.823Z,100317.34
2023-02-16T08:17:48.542Z,100319.91
2023-02-16T08:18:51.093Z,100327.72
2023-02-16T08:19:52.817Z,100320.25
2023-02-16T08:21:03.827Z,100328.28
2023-02-16T08:22:07.465Z,100330.34
2023-02-16T08:23:10.431Z,100326.16
2023-02-16T08:24:13.394Z,100329.81
2023-02-16T08:25:16.142Z,100335.53
2023-02-16T08:26:18.934Z,100323.00
2023-02-16T08:27:21.419Z,100321.13
2023-02-16T08:28:28.608Z,100323.03
2023-02-16T08:29:31.288Z,100318.09
2023-02-16T08:30:34.852Z,100323.34
2023-02-16T08:31:38.514Z,100322.81
2023-02-16T08:32:40.716Z,100320.41
2023-02-16T08:33:44.104Z,100314.22
2023-02-16T08:34:46.059Z,100315.72
2023-02-16T08:35:48.544Z,100317.72
2023-02-16T08:36:56.899Z,100319.03
2023-02-16T08:38:02.548Z,100320.31
2023-02-16T08:39:09.110Z,100319.00
2023-02-16T08:40:11.148Z,100317.97
2023-02-16T08:41:12.824Z,100318.03
2023-02-16T08:42:14.590Z,100304.00
2023-02-16T08:43:16.458Z,100315.47
2023-02-16T08:44:19.728Z,100303.28
2023-02-16T08:45:21.902Z,100299.50
2023-02-16T08:46:23.881Z,100300.72
2023-02-16T08:47:25.893Z,100297.19
2023-02-16T08:48:28.934Z,100298.28
2023-02-16T08:49:30.902Z,100297.66
2023-02-16T08:50:32.876Z,100294.94
2023-02-16T08:51:38.483Z,100297.78
2023-02-16T08:52:40.243Z,100298.72
2023-02-16T08:53:41.951Z,100290.72
2023-02-16T08:54:44.057Z,100300.44
2023-02-16T08:55:55.804Z,100296.38
2023-02-16T08:56:59.856Z,100300.38
2023-02-16T08:58:01.656Z,100288.84
2023-02-16T08:59:03.676Z,100295.56
2023-02-16T09:00:41.344Z,100297.41
2023-02-16T09:01:43.204Z,100294.56
2023-02-16T09:02:45.046Z,100294.56
2023-02-16T09:03:46.845Z,100295.69
2023-02-16T09:04:49.754Z,100299.22
2023-02-16T09:05:52.969Z,100300.97
2023-02-16T09:06:56.392Z,100287.34
2023-02-16T09:07:58.764Z,100294.47
2023-02-16T09:09:00.627Z,100294.34
2023-02-16T09:10:03.042Z,100291.19
2023-02-16T09:11:07.927Z,100283.66
2023-02-16T09:12:09.618Z,100292.91
2023-02-16T09:13:15.157Z,100292.09
2023-02-16T09:14:20.093Z,100293.16
2023-02-16T09:15:22.475Z,100283.81
2023-02-16T09:16:25.293Z,100294.88
2023-02-16T09:17:28.987Z,100292.38
2023-02-16T09:18:33.169Z,100289.31
2023-02-16T09:19:35.541Z,100287.41
2023-02-16T09:20:41.798Z,100281.63
2023-02-16T09:21:45.190Z,100291.34
2023-02-16T09:22:47.419Z,100296.34
2023-02-16T09:23:50.664Z,100277.66
2023-02-16T09:24:52.390Z,100285.13
2023-02-16T09:25:54.183Z,100281.81
2023-02-16T09:26:55.997Z,100279.19
2023-02-16T09:27:58.066Z,100282.72
2023-02-16T09:29:01.129Z,100284.91
2023-02-16T09:30:03.481Z,100286.00
2023-02-16T09:31:13.327Z,100283.03
2023-02-16T09:32:15.569Z,100284.13
2023-02-16T09:33:17.260Z,100279.19
2023-02-16T09:34:21.817Z,100287.34
2023-02-16T09:35:23.516Z,100282.25
2023-02-16T09:36:25.274Z,100276.91
2023-02-16T09:37:27.009Z,100268.53
2023-02-16T09:38:28.704Z,100274.28
2023-02-16T09:39:31.097Z,100271.88
2023-02-16T09:40:32.841Z,100265.13
2023-02-16T09:41:55.781Z,100269.97
2023-02-16T09:43:00.216Z,100271.31
2023-02-16T09:44:32.619Z,100270.53
2023-02-16T09:45:41.313Z,100268.34
2023-02-16T09:46:43.595Z,100272.34
2023-02-16T09:47:47.752Z,100264.41
2023-02-16T09:48:51.123Z,100268.13
2023-02-16T09:49:56.577Z,100268.34
2023-02-16T09:51:00.677Z,100258.47
2023-02-16T09:52:13.538Z,100265.06
2023-02-16T09:53:23.714Z,100249.94
2023-02-16T09:54:53.908Z,100266.19
2023-02-16T09:56:17.132Z,100255.31
2023-02-16T09:57:21.819Z,100253.31
2023-02-16T09:58:42.302Z,100255.81
2023-02-16T10:00:08.013Z,100254.81
2023-02-16T10:01:42.613Z,100248.50
2023-02-16T10:03:21.122Z,100251.50
2023-02-16T10:04:39.108Z,100248.06
2023-02-16T10:05:57.183Z,100252.34
2023-02-16T10:07:06.257Z,100249.75
2023-02-16T10:08:27.712Z,100248.59
2023-02-16T10:09:32.507Z,100240.22
2023-02-16T10:10:43.751Z,100245.66
2023-02-16T10:11:49.126Z,100240.66
2023-02-16T10:12:56.790Z,100223.97
2023-02-16T10:14:31.146Z,100240.28
2023-02-16T10:15:35.033Z,100240.47
2023-02-16T10:16:42.902Z,100223.09
2023-02-16T10:17:48.223Z,100229.38
2023-02-16T10:18:54.001Z,100232.19
2023-02-16T10:20:18.530Z,100228.00
2023-02-16T10:21:29.817Z,100229.09
2023-02-16T10:22:44.442Z,100230.78
2023-02-16T10:23:50.956Z,100228.06
2023-02-16T10:25:19.690Z,100233.75
2023-02-16T10:26:54.151Z,100221.84
2023-02-16T10:28:14.857Z,100226.97
2023-02-16T10:29:18.429Z,100221.25
2023-02-16T10:30:23.136Z,100218.09
2023-02-16T10:31:59.871Z,100220.00
2023-02-16T10:33:22.866Z,100225.22
2023-02-16T10:34:45.896Z,100222.38
2023-02-16T10:35:50.256Z,100215.22
2023-02-16T10:37:19.347Z,100222.00
2023-02-16T10:38:31.332Z,100215.88
2023-02-16T10:39:32.971Z,100212.53
2023-02-16T10:40:57.574Z,100208.50
2023-02-16T10:42:09.905Z,100209.16
2023-02-16T10:43:21.463Z,100206.19
2023-02-16T10:44:29.878Z,100203.63
2023-02-16T10:45:52.461Z,100211.91
2023-02-16T10:47:01.331Z,100209.59
2023-02-16T10:48:03.546Z,100209.78
2023-02-16T10:49:05.309Z,100198.72
2023-02-16T10:50:19.242Z,100204.06
2023-02-16T10:51:23.548Z,100190.63
2023-02-16T10:52:31.584Z,100205.00
2023-02-16T10:53:59.703Z,100199.72
2023-02-16T10:55:02.199Z,100195.00
2023-02-16T10:56:36.475Z,100190.44
2023-02-16T10:57:39.569Z,100196.44
2023-02-16T10:58:42.518Z,100184.41
2023-02-16T10:59:45.923Z,100185.19
2023-02-16T11:01:08.572Z,100193.66
2023-02-16T11:02:20.479Z,100182.13
2023-02-16T11:03:25.644Z,100187.66
2023-02-16T11:04:42.297Z,100190.03
2023-02-16T11:05:44.142Z,100186.19
2023-02-16T11:07:03.404Z,100184.59
2023-02-16T11:08:07.791Z,100179.53
2023-02-16T11:09:15.856Z,100183.06
2023-02-16T11:10:34.324Z,100178.06
2023-02-16T11:11:42.015Z,100175.22
2023-02-16T11:12:43.859Z,100176.13
2023-02-16T11:13:49.841Z,100170.19
2023-02-16T11:14:55.173Z,100172.81
2023-02-16T11:16:01.351Z,100168.00
2023-02-16T11:17:12.675Z,100168.69
2023-02-16T11:18:35.121Z,100165.41
2023-02-16T11:19:38.982Z,100156.03
2023-02-16T11:20:45.185Z,100161.06
2023-02-16T11:21:55.308Z,100161.88
2023-02-16T11:23:15.305Z,100160.03
2023-02-16T11:24:26.259Z,100162.97
2023-02-16T11:25:28.318Z,100163.81
2023-02-16T11:26:30.520Z,100141.19
2023-02-16T11:27:32.695Z,100155.94
2023-02-16T11:28:36.397Z,100156.56
2023-02-16T11:29:38.102Z,100156.19
2023-02-16T11:30:42.378Z,100152.44
2023-02-16T11:31:44.374Z,100153.50
2023-02-16T11:32:46.553Z,100145.28
2023-02-16T11:34:32.676Z,100147.59
2023-02-16T11:35:42.874Z,100143.50
2023-02-16T11:36:46.221Z,100136.63
2023-02-16T11:37:48.348Z,100138.97
2023-02-16T11:39:02.538Z,100134.25
2023-02-16T11:40:26.409Z,100139.09
2023-02-16T11:41:29.729Z,100131.72
2023-02-16T11:42:53.369Z,100140.00
2023-02-16T11:43:56.287Z,100128.50
2023-02-16T11:45:00.440Z,100119.03
2023-02-16T11:46:15.788Z,100129.69
2023-02-16T11:47:23.274Z,100133.81
2023-02-16T11:48:31.422Z,100123.31
2023-02-16T11:49:35.159Z,100120.41
2023-02-16T11:50:39.954Z,100122.94
2023-02-16T11:51:42.054Z,100115.50
2023-02-16T11:52:43.782Z,100114.91
2023-02-16T11:53:46.106Z,100117.13
2023-02-16T11:54:57.593Z,100115.84
2023-02-16T11:56:18.295Z,100114.84
2023-02-16T11:57:28.745Z,100107.03
2023-02-16T11:58:30.601Z,100115.19
2023-02-16T11:59:38.892Z,100106.91
2023-02-16T12:00:47.711Z,100109.81
2023-02-16T12:02:08.805Z,100102.00
2023-02-16T12:03:25.513Z,100107.78
2023-02-16T12:05:01.420Z,100100.63
2023-02-16T12:06:31.156Z,100103.59
2023-02-16T12:08:10.402Z,100103.06
2023-02-16T12:09:33.077Z,100094.94
2023-02-16T12:11:08.618Z,100094.13
2023-02-16T12:12:18.022Z,100083.88
2023-02-16T12:13:36.377Z,100087.56
2023-02-16T12:14:41.843Z,100095.66
2023-02-16T12:16:15.706Z,100093.06
2023-02-16T12:17:42.620Z,100090.69
2023-02-16T12:18:56.600Z,100080.03
2023-02-16T12:20:13.341Z,100074.59
2023-02-16T12:21:45.396Z,100075.50
2023-02-16T12:22:50.022Z,100080.53
2023-02-16T12:23:54.533Z,100075.28
2023-02-16T12:25:15.110Z,100083.25
2023-02-16T12:26:35.138Z,100070.56
2023-02-16T12:27:55.166Z,100083.28
2023-02-16T12:29:17.066Z,100074.91
2023-02-16T12:30:31.108Z,100071.63
2023-02-16T12:31:57.448Z,100063.47
2023-02-16T12:33:01.870Z,100064.63
2023-02-16T12:34:26.607Z,100063.56
2023-02-16T12:35:39.490Z,100061.09
2023-02-16T12:37:04.367Z,100059.38
2023-02-16T12:38:11.912Z,100063.47
2023-02-16T12:39:19.534Z,100062.31
2023-02-16T12:40:27.159Z,100053.13
2023-02-16T12:41:56.489Z,100049.38
2023-02-16T12:43:16.801Z,100052.16
2023-02-16T12:44:28.301Z,100061.50
2023-02-16T12:45:37.975Z,100045.59
2023-02-16T12:46:43.748Z,100047.81